Time;durP1;ratioP1;P1;durP2;ratioP2;P2;SDS_P1;SDS_P2;PMS_P1;PMS_P2;Temp;Humidity;BMP_temperature;BMP_pressure;BME280_temperature;BME280_humidity;BME280_pressure;Samples;Min_cycle;Max_cycle;Signal;HPM_P1;HPM_P2
2022/04/01 00:01:20;;;;;;;10.52;3.65;;;0.70;99.90;;;;;;5046142;28;20497;-68
2022/04/01 00:03:45;;;;;;;8.55;3.28;;;0.70;99.90;;;;;;5053386;28;20542;-68
2022/04/01 00:06:11;;;;;;;10.38;3.40;;;0.60;99.90;;;;;;5057313;28;20060;-67
2022/04/01 00:08:37;;;;;;;9.13;3.20;;;0.70;99.90;;;;;;5050993;28;20033;-67
2022/04/01 00:11:03;;;;;;;9.38;3.53;;;0.70;99.90;;;;;;5055280;28;20500;-67
2022/04/01 00:13:28;;;;;;;7.88;2.97;;;0.60;99.90;;;;;;5059303;28;20025;-67
2022/04/01 00:15:54;;;;;;;8.93;3.38;;;0.70;99.90;;;;;;5050747;28;20392;-67
2022/04/01 00:18:20;;;;;;;6.47;2.58;;;0.70;99.90;;;;;;5059256;28;20036;-67
2022/04/01 00:20:45;;;;;;;8.93;2.90;;;0.60;99.90;;;;;;5082667;28;20096;-67
2022/04/01 00:23:12;;;;;;;7.03;2.40;;;0.70;99.90;;;;;;5050532;28;20025;-67
2022/04/01 00:25:39;;;;;;;8.38;2.85;;;0.60;99.90;;;;;;5058867;28;20035;-68
2022/04/01 00:28:05;;;;;;;9.27;2.60;;;0.60;99.90;;;;;;5053890;28;20097;-67
2022/04/01 00:30:33;;;;;;;8.93;2.50;;;0.60;99.90;;;;;;5056046;28;20444;-67
2022/04/01 00:32:59;;;;;;;8.07;2.90;;;0.70;99.90;;;;;;5057176;28;20071;-68
2022/04/01 00:35:25;;;;;;;8.02;2.63;;;0.70;99.90;;;;;;5054388;28;20477;-67
2022/04/01 00:37:52;;;;;;;6.90;2.63;;;0.70;99.90;;;;;;5057812;28;20057;-68
2022/04/01 00:40:18;;;;;;;7.55;2.65;;;0.60;99.90;;;;;;5048887;28;20017;-68
2022/04/01 00:42:45;;;;;;;8.23;2.50;;;0.70;99.90;;;;;;5053827;28;20028;-68
2022/04/01 00:45:11;;;;;;;6.57;2.85;;;0.70;99.90;;;;;;5052618;28;20040;-68
2022/04/01 00:47:38;;;;;;;10.35;2.72;;;0.70;99.90;;;;;;5052162;28;21292;-68
2022/04/01 00:50:04;;;;;;;7.03;2.42;;;0.70;99.90;;;;;;5046882;28;20024;-68
2022/04/01 00:52:30;;;;;;;7.40;2.72;;;0.60;99.90;;;;;;5052297;28;20045;-68
2022/04/01 00:54:56;;;;;;;6.20;2.45;;;0.70;99.90;;;;;;5057830;28;20025;-68
2022/04/01 00:57:22;;;;;;;7.25;2.50;;;0.70;99.90;;;;;;5051476;28;20053;-68
2022/04/01 00:59:48;;;;;;;6.40;3.03;;;0.70;99.90;;;;;;5051393;28;20059;-68
2022/04/01 01:02:14;;;;;;;7.90;2.65;;;0.70;99.90;;;;;;5046845;28;20033;-68
2022/04/01 01:04:41;;;;;;;6.63;2.63;;;0.70;99.90;;;;;;5044405;28;20468;-68
2022/04/01 01:07:07;;;;;;;6.43;2.55;;;0.70;99.90;;;;;;5050534;28;20302;-68
2022/04/01 01:09:33;;;;;;;9.00;2.47;;;0.70;99.90;;;;;;5054209;28;20028;-68
2022/04/01 01:11:59;;;;;;;7.82;2.40;;;0.70;99.90;;;;;;5053473;28;20024;-68
2022/04/01 01:14:34;;;;;;;6.40;2.42;;;0.70;99.90;;;;;;5052538;28;20025;-68
2022/04/01 01:17:02;;;;;;;6.15;2.20;;;0.70;99.90;;;;;;5052341;28;20041;-68
2022/04/01 01:19:29;;;;;;;6.53;2.13;;;0.70;99.90;;;;;;5052191;28;20041;-69
2022/04/01 01:21:56;;;;;;;6.90;2.38;;;0.70;99.90;;;;;;5052025;28;20092;-69
2022/04/01 01:24:33;;;;;;;6.18;2.38;;;0.70;99.90;;;;;;5054328;28;20025;-69
2022/04/01 01:26:59;;;;;;;6.78;2.55;;;0.70;99.90;;;;;;5055821;28;20044;-69
2022/04/01 01:29:30;;;;;;;9.23;2.35;;;0.80;99.90;;;;;;5053087;28;20021;-69
2022/04/01 01:31:59;;;;;;;6.35;2.45;;;0.80;99.90;;;;;;5050335;28;20029;-69
2022/04/01 01:34:26;;;;;;;6.35;2.15;;;0.80;99.90;;;;;;5055555;28;20080;-69
2022/04/01 01:36:52;;;;;;;6.13;2.58;;;0.80;99.90;;;;;;5055476;28;20037;-69
2022/04/01 01:39:19;;;;;;;5.88;2.20;;;0.80;99.90;;;;;;5049271;28;20022;-69
2022/04/01 01:41:46;;;;;;;7.57;2.63;;;0.80;99.90;;;;;;5050120;28;21308;-69
2022/04/01 01:44:13;;;;;;;7.50;2.65;;;0.90;99.90;;;;;;5045937;28;20009;-69
2022/04/01 01:46:39;;;;;;;6.75;2.50;;;0.80;99.90;;;;;;5058153;28;20037;-67
2022/04/01 01:49:05;;;;;;;8.45;2.72;;;0.80;99.90;;;;;;5048221;28;20032;-67
2022/04/01 01:57:00;;;;;;;6.13;2.58;;;0.90;99.90;;;;;;5059786;28;20126;-67
2022/04/01 01:59:27;;;;;;;7.82;2.58;;;0.90;99.90;;;;;;5060565;28;20449;-67
2022/04/01 02:01:53;;;;;;;6.32;2.90;;;0.90;99.90;;;;;;5051357;28;20910;-67
2022/04/01 02:04:23;;;;;;;6.80;2.63;;;0.90;99.90;;;;;;5052557;28;20113;-67
2022/04/01 02:06:49;;;;;;;9.30;2.45;;;0.90;99.90;;;;;;5062338;28;20029;-67
2022/04/01 02:09:16;;;;;;;6.38;2.72;;;0.90;99.90;;;;;;5052418;28;20408;-67
2022/04/01 02:11:43;;;;;;;6.35;2.55;;;0.90;99.90;;;;;;5057648;28;20033;-67
2022/04/01 02:14:09;;;;;;;9.45;3.25;;;0.90;99.90;;;;;;5060444;28;20104;-67
2022/04/01 02:16:35;;;;;;;6.15;2.30;;;0.90;99.90;;;;;;5049830;28;20148;-66
2022/04/01 02:19:01;;;;;;;6.43;2.30;;;0.90;99.90;;;;;;5047360;28;20025;-67
2022/04/01 02:21:27;;;;;;;9.73;3.25;;;0.90;99.90;;;;;;5064457;28;20058;-67
2022/04/01 02:23:52;;;;;;;6.38;2.63;;;0.90;99.90;;;;;;5059078;28;20465;-68
2022/04/01 02:26:18;;;;;;;7.35;2.15;;;0.90;99.90;;;;;;5058303;28;20071;-67
2022/04/01 02:28:44;;;;;;;7.50;2.90;;;0.90;99.90;;;;;;5053728;28;20501;-68
2022/04/01 02:31:11;;;;;;;7.68;2.67;;;0.90;99.90;;;;;;5052287;28;20021;-67
2022/04/01 02:33:37;;;;;;;8.25;2.92;;;0.90;99.90;;;;;;5055370;28;20853;-68
2022/04/01 02:36:10;;;;;;;8.93;3.00;;;0.90;99.90;;;;;;5055595;28;20033;-67
2022/04/01 02:38:41;;;;;;;7.57;3.05;;;0.90;99.90;;;;;;5057575;28;20029;-67
2022/04/01 02:41:08;;;;;;;7.20;2.47;;;0.80;99.90;;;;;;5051685;28;20049;-67
2022/04/01 02:43:35;;;;;;;7.32;2.90;;;0.90;99.90;;;;;;5052117;28;20055;-67
2022/04/01 02:46:02;;;;;;;7.82;2.95;;;0.80;99.90;;;;;;5056244;28;20036;-67
2022/04/01 02:48:28;;;;;;;8.30;2.75;;;0.80;99.90;;;;;;5059212;28;20298;-67
2022/04/01 02:50:53;;;;;;;9.07;2.80;;;0.70;99.90;;;;;;5052703;28;20033;-67
2022/04/01 02:53:19;;;;;;;8.60;3.13;;;0.70;99.90;;;;;;5047213;28;20029;-67
2022/04/01 02:55:45;;;;;;;6.75;2.72;;;0.70;99.90;;;;;;5053933;28;20055;-68
2022/04/01 02:58:12;;;;;;;7.43;2.58;;;0.70;99.90;;;;;;5046697;28;20048;-67
2022/04/01 03:00:38;;;;;;;7.28;2.47;;;0.70;99.90;;;;;;5034863;28;20031;-67
2022/04/01 03:03:07;;;;;;;7.20;2.60;;;0.70;99.90;;;;;;5054222;28;20351;-68
2022/04/01 03:05:35;;;;;;;7.70;2.53;;;0.70;99.90;;;;;;5054465;28;20036;-67
2022/04/01 03:08:00;;;;;;;8.05;2.92;;;0.70;99.90;;;;;;5058417;28;20025;-67
2022/04/01 03:10:27;;;;;;;7.45;2.65;;;0.70;99.90;;;;;;5053988;28;20033;-67
2022/04/01 03:12:53;;;;;;;7.57;2.53;;;0.70;99.90;;;;;;5054912;28;20028;-67
2022/04/01 03:15:19;;;;;;;8.60;2.70;;;0.70;99.90;;;;;;5052854;28;20084;-67
2022/04/01 03:17:45;;;;;;;6.88;2.63;;;0.70;99.90;;;;;;5050967;28;20051;-67
2022/04/01 03:20:14;;;;;;;7.07;2.63;;;0.80;99.90;;;;;;5051437;28;20044;-68
2022/04/01 03:22:43;;;;;;;7.38;2.58;;;0.80;99.90;;;;;;5048948;28;20056;-67
2022/04/01 03:25:13;;;;;;;6.72;2.50;;;0.80;99.90;;;;;;5040467;28;20097;-67
2022/04/01 03:27:39;;;;;;;7.20;2.50;;;0.90;99.90;;;;;;5042713;28;20026;-67
2022/04/01 03:30:09;;;;;;;5.60;2.10;;;0.90;99.90;;;;;;5050867;28;20037;-67
2022/04/01 03:32:38;;;;;;;7.82;2.38;;;0.90;99.90;;;;;;5048560;28;20428;-67
2022/04/01 03:35:09;;;;;;;6.25;2.28;;;0.90;99.90;;;;;;5055973;28;20115;-67
2022/04/01 03:37:35;;;;;;;7.00;2.35;;;0.90;99.90;;;;;;5055160;28;20104;-67
2022/04/01 03:40:02;;;;;;;6.28;1.90;;;1.00;99.90;;;;;;5057116;28;20025;-67
2022/04/01 03:42:30;;;;;;;9.20;2.55;;;1.00;99.90;;;;;;5048142;28;20025;-67
2022/04/01 03:45:06;;;;;;;6.50;2.33;;;1.00;99.90;;;;;;5056561;28;20037;-67
2022/04/01 03:47:44;;;;;;;7.45;2.35;;;1.10;99.90;;;;;;5050117;28;20195;-67
2022/04/01 03:50:11;;;;;;;6.32;2.58;;;1.10;99.90;;;;;;5058119;28;20037;-67
2022/04/01 03:52:38;;;;;;;6.28;2.30;;;1.10;99.90;;;;;;5052013;28;20035;-67
2022/04/01 03:55:06;;;;;;;7.97;2.35;;;1.10;99.90;;;;;;5061192;28;20062;-67
2022/04/01 03:57:40;;;;;;;6.78;2.05;;;1.20;99.90;;;;;;5050563;28;20146;-66
2022/04/01 04:00:07;;;;;;;6.97;2.42;;;1.20;99.90;;;;;;5056150;28;20033;-67
2022/04/01 04:02:34;;;;;;;7.22;2.38;;;1.20;99.90;;;;;;5051542;28;20037;-67
2022/04/01 04:05:02;;;;;;;6.47;2.28;;;1.20;99.90;;;;;;5055471;28;20025;-67
2022/04/01 04:07:31;;;;;;;5.75;2.17;;;1.20;99.90;;;;;;5050942;28;20045;-67
2022/04/01 04:09:58;;;;;;;6.80;2.65;;;1.20;99.90;;;;;;5055768;28;20061;-67
2022/04/01 04:12:27;;;;;;;5.72;2.05;;;1.30;99.90;;;;;;5054989;28;20029;-68
2022/04/01 04:14:53;;;;;;;7.03;2.30;;;1.20;99.90;;;;;;5052338;28;20031;-67
2022/04/01 04:17:36;;;;;;;7.28;2.67;;;1.20;99.90;;;;;;5051689;28;20078;-67
2022/04/01 04:20:02;;;;;;;8.00;2.30;;;1.30;99.90;;;;;;5054495;28;20032;-67
2022/04/01 04:22:40;;;;;;;9.65;2.65;;;1.20;99.90;;;;;;5054832;28;20029;-66
2022/04/01 04:25:10;;;;;;;8.02;2.72;;;1.30;99.90;;;;;;5054297;28;20029;-67
2022/04/01 04:27:38;;;;;;;10.27;3.90;;;1.30;99.90;;;;;;5050925;28;20068;-67
2022/04/01 04:30:08;;;;;;;6.95;2.20;;;1.30;99.90;;;;;;5054361;28;20021;-67
2022/04/01 04:32:37;;;;;;;7.18;2.30;;;1.30;99.90;;;;;;5046965;28;20100;-67
2022/04/01 04:35:05;;;;;;;7.97;2.30;;;1.30;99.90;;;;;;5043916;28;20048;-67
2022/04/01 04:37:34;;;;;;;7.47;2.28;;;1.30;99.90;;;;;;5052479;28;20489;-67
2022/04/01 04:40:01;;;;;;;6.55;2.17;;;1.30;99.90;;;;;;5051352;28;20029;-67
2022/04/01 04:42:28;;;;;;;6.72;2.75;;;1.30;99.90;;;;;;5056607;28;20102;-67
2022/04/01 04:44:54;;;;;;;7.35;2.00;;;1.30;99.90;;;;;;5055724;28;20021;-68
2022/04/01 04:47:28;;;;;;;8.00;2.00;;;1.30;99.90;;;;;;5049575;28;20076;-67
2022/04/01 04:49:57;;;;;;;7.57;2.35;;;1.30;99.90;;;;;;5053028;28;20353;-67
2022/04/01 04:52:34;;;;;;;5.75;1.92;;;1.30;99.90;;;;;;5058446;28;20042;-67
2022/04/01 04:55:01;;;;;;;6.90;2.28;;;1.30;99.90;;;;;;5052586;28;20433;-68
2022/04/01 04:57:28;;;;;;;6.82;2.00;;;1.30;99.90;;;;;;5057899;28;20033;-67
2022/04/01 04:59:57;;;;;;;8.85;1.85;;;1.30;99.90;;;;;;5058821;28;20037;-70
2022/04/01 05:03:07;;;;;;;8.10;2.20;;;1.30;99.90;;;;;;5052288;28;20029;-67
2022/04/01 05:05:49;;;;;;;7.20;1.90;;;1.30;99.90;;;;;;5049333;28;20025;-69
2022/04/01 05:08:31;;;;;;;7.80;2.08;;;1.40;99.90;;;;;;5056840;28;20017;-68
2022/04/01 05:11:22;;;;;;;5.82;2.08;;;1.40;99.90;;;;;;5058216;28;20424;-69
2022/04/01 05:14:05;;;;;;;6.88;2.05;;;1.40;99.90;;;;;;5052004;28;20052;-70
2022/04/01 05:16:53;;;;;;;5.78;2.10;;;1.40;99.90;;;;;;5050961;28;20424;-69
2022/04/01 05:19:26;;;;;;;6.32;1.92;;;1.40;99.90;;;;;;5059068;28;20025;-68
2022/04/01 05:22:01;;;;;;;9.48;2.17;;;1.40;99.90;;;;;;5056319;28;20021;-68
2022/04/01 05:24:39;;;;;;;6.22;1.65;;;1.40;99.90;;;;;;5053288;28;20036;-68
2022/04/01 05:27:30;;;;;;;5.97;1.85;;;1.50;99.90;;;;;;5059348;28;20025;-68
2022/04/01 05:30:12;;;;;;;7.78;2.35;;;1.50;99.90;;;;;;5058229;28;20081;-68
2022/04/01 05:32:48;;;;;;;5.32;1.80;;;1.50;99.90;;;;;;5057532;28;20067;-70
2022/04/01 05:35:15;;;;;;;6.18;2.17;;;1.50;99.90;;;;;;5056495;28;20057;-69
2022/04/01 05:37:42;;;;;;;7.47;1.60;;;1.50;99.90;;;;;;5060044;28;20041;-69
2022/04/01 05:40:08;;;;;;;6.65;1.75;;;1.50;99.90;;;;;;5058312;28;20089;-69
2022/04/01 05:42:36;;;;;;;6.40;1.65;;;1.50;99.90;;;;;;5061239;28;20033;-69
2022/04/01 05:45:02;;;;;;;6.43;1.88;;;1.60;99.90;;;;;;5057322;28;20021;-69
2022/04/01 05:47:31;;;;;;;7.15;1.63;;;1.60;99.90;;;;;;5058370;28;20504;-69
2022/04/01 05:49:59;;;;;;;6.18;1.60;;;1.60;99.90;;;;;;5061623;28;20025;-69
2022/04/01 05:52:25;;;;;;;6.00;1.80;;;1.70;99.90;;;;;;5059182;28;20021;-69
2022/04/01 05:54:51;;;;;;;5.75;1.70;;;1.60;99.90;;;;;;5054443;28;20036;-69
2022/04/01 05:57:20;;;;;;;6.18;1.73;;;1.70;99.90;;;;;;5061229;28;20056;-69
2022/04/01 05:59:46;;;;;;;5.80;1.75;;;1.70;99.90;;;;;;5063697;28;20039;-69
2022/04/01 06:02:47;;;;;;;7.30;1.60;;;1.70;99.90;;;;;;5040721;28;20080;-69
2022/04/01 06:05:19;;;;;;;7.78;1.77;;;1.70;99.90;;;;;;5028438;28;20105;-69
2022/04/01 06:07:47;;;;;;;6.88;1.50;;;1.80;99.90;;;;;;5046624;28;20238;-69
2022/04/01 06:10:26;;;;;;;6.10;1.70;;;1.80;99.90;;;;;;5051285;28;20032;-69
2022/04/01 06:13:17;;;;;;;5.47;1.60;;;1.90;99.90;;;;;;5050978;28;20033;-70
2022/04/01 06:16:04;;;;;;;8.00;1.80;;;1.90;99.90;;;;;;5053745;28;20057;-70
2022/04/01 06:18:36;;;;;;;7.55;2.00;;;2.00;99.90;;;;;;5051132;28;20033;-68
2022/04/01 06:21:04;;;;;;;6.00;1.70;;;2.00;99.90;;;;;;5049742;28;20100;-69
2022/04/01 06:23:54;;;;;;;6.65;1.60;;;2.10;99.90;;;;;;5059835;28;20359;-69
2022/04/01 06:26:20;;;;;;;8.15;2.15;;;2.10;99.90;;;;;;5053547;28;20052;-69
2022/04/01 06:28:50;;;;;;;7.40;2.10;;;2.20;99.90;;;;;;5055729;28;20036;-68
2022/04/01 06:31:22;;;;;;;7.90;1.95;;;2.20;99.90;;;;;;5058489;28;20032;-71
2022/04/01 06:34:14;;;;;;;7.70;2.00;;;2.30;99.90;;;;;;5055927;28;20084;-69
2022/04/01 06:36:49;;;;;;;8.75;2.13;;;2.30;99.90;;;;;;5055764;28;20037;-71
2022/04/01 06:39:32;;;;;;;6.53;1.73;;;2.40;99.90;;;;;;5057060;28;20503;-70
2022/04/01 06:42:00;;;;;;;8.65;2.78;;;2.40;99.90;;;;;;5061549;28;20048;-70
2022/04/01 06:44:26;;;;;;;6.97;1.80;;;2.50;99.90;;;;;;5061761;28;20085;-70
2022/04/01 06:46:52;;;;;;;5.88;1.67;;;2.50;99.90;;;;;;5061194;28;20063;-70
2022/04/01 06:49:18;;;;;;;7.53;1.92;;;2.60;99.90;;;;;;5033682;28;20034;-70
2022/04/01 06:51:46;;;;;;;6.85;1.85;;;2.60;99.90;;;;;;5053064;28;20030;-70
2022/04/01 06:54:12;;;;;;;7.93;1.80;;;2.70;99.90;;;;;;5078216;28;20765;-70
2022/04/01 06:56:38;;;;;;;6.55;1.73;;;2.70;99.90;;;;;;5050017;28;20053;-69
2022/04/01 06:59:05;;;;;;;9.32;2.40;;;2.80;99.90;;;;;;5054466;28;20033;-71
2022/04/01 07:01:31;;;;;;;5.78;1.77;;;2.80;99.90;;;;;;5043345;28;20489;-70
2022/04/01 07:03:56;;;;;;;5.75;1.83;;;2.80;99.90;;;;;;5061244;28;20028;-70
2022/04/01 07:06:22;;;;;;;6.05;2.35;;;2.90;99.90;;;;;;5058827;28;20059;-81
2022/04/01 07:08:48;;;;;;;6.07;1.85;;;2.90;99.90;;;;;;5043027;28;20052;-82
2022/04/01 07:11:17;;;;;;;6.50;1.92;;;2.90;99.90;;;;;;5060054;28;20036;-82
2022/04/01 07:13:43;;;;;;;6.82;2.10;;;2.90;99.90;;;;;;5039579;28;20083;-75
2022/04/01 07:16:10;;;;;;;6.95;1.70;;;3.00;99.90;;;;;;5034161;28;20045;-74
2022/04/01 07:18:37;;;;;;;7.72;1.95;;;3.10;99.90;;;;;;5053205;28;20037;-73
2022/04/01 07:21:03;;;;;;;6.13;1.95;;;3.10;99.90;;;;;;5038451;28;20021;-73
2022/04/01 07:23:28;;;;;;;6.10;1.67;;;3.20;99.90;;;;;;5040320;28;20030;-73
2022/04/01 07:25:54;;;;;;;7.32;1.80;;;3.20;99.90;;;;;;5060919;28;20448;-73
2022/04/01 07:28:20;;;;;;;6.40;1.75;;;3.30;99.90;;;;;;5042839;28;20481;-73
2022/04/01 07:30:45;;;;;;;8.90;1.90;;;3.20;99.90;;;;;;5051396;28;20024;-72
2022/04/01 07:33:11;;;;;;;6.43;1.98;;;3.30;99.90;;;;;;5067728;28;20037;-72
2022/04/01 07:35:37;;;;;;;5.82;1.45;;;3.30;99.90;;;;;;5055805;28;20036;-72
2022/04/01 07:38:06;;;;;;;7.15;2.38;;;3.30;99.90;;;;;;5058164;28;20040;-72
2022/04/01 07:40:32;;;;;;;6.10;1.60;;;3.20;99.90;;;;;;5058308;28;20013;-72
2022/04/01 07:42:58;;;;;;;7.95;1.70;;;3.30;99.90;;;;;;5057742;28;20025;-71
2022/04/01 07:45:24;;;;;;;7.35;1.75;;;3.40;99.90;;;;;;5056599;28;20029;-71
2022/04/01 07:47:51;;;;;;;6.88;2.13;;;3.40;99.90;;;;;;5054222;28;20022;-71
2022/04/01 07:50:18;;;;;;;6.75;1.70;;;3.20;99.90;;;;;;5058371;28;20494;-71
2022/04/01 07:52:45;;;;;;;7.10;2.00;;;3.20;99.90;;;;;;5047176;28;20025;-72
2022/04/01 07:55:13;;;;;;;5.47;1.80;;;3.20;99.90;;;;;;5054176;28;20048;-69
2022/04/01 07:57:39;;;;;;;5.28;1.90;;;3.20;99.90;;;;;;5051165;28;20069;-68
2022/04/01 08:00:07;;;;;;;6.68;2.00;;;3.20;99.90;;;;;;5047835;28;20044;-69
2022/04/01 08:02:33;;;;;;;9.15;2.00;;;3.30;99.90;;;;;;5050376;28;20034;-68
2022/04/01 08:04:59;;;;;;;8.18;2.15;;;3.20;99.90;;;;;;5048327;28;20029;-68
2022/04/01 08:07:24;;;;;;;6.90;2.00;;;3.20;99.90;;;;;;5052426;28;20700;-68
2022/04/01 08:09:52;;;;;;;6.35;1.92;;;3.30;99.90;;;;;;5058570;28;20017;-68
2022/04/01 08:12:17;;;;;;;6.47;2.13;;;3.30;99.90;;;;;;5058975;28;20056;-70
2022/04/01 08:14:43;;;;;;;7.93;2.20;;;3.20;99.90;;;;;;5057453;28;20025;-68
2022/04/01 08:17:14;;;;;;;7.30;2.45;;;3.20;99.90;;;;;;5042314;28;20071;-69
2022/04/01 08:19:40;;;;;;;8.48;3.05;;;3.20;99.90;;;;;;5055559;28;20025;-69
2022/04/01 08:22:07;;;;;;;9.13;3.55;;;3.20;99.90;;;;;;5057139;28;20057;-69
2022/04/01 08:24:32;;;;;;;8.23;2.85;;;3.10;99.90;;;;;;5055784;28;20032;-68
2022/04/01 08:27:00;;;;;;;8.60;2.95;;;3.10;99.90;;;;;;5058025;28;20084;-69
2022/04/01 08:29:27;;;;;;;7.53;3.17;;;3.10;99.90;;;;;;5042240;28;20142;-69
2022/04/01 08:31:57;;;;;;;8.07;3.40;;;3.20;99.90;;;;;;5059785;28;20033;-71
2022/04/01 08:34:23;;;;;;;10.05;5.93;;;3.20;99.90;;;;;;5040728;28;20033;-69
2022/04/01 08:36:49;;;;;;;9.07;3.30;;;3.20;99.90;;;;;;5058028;28;20044;-72
2022/04/01 08:39:15;;;;;;;7.20;3.33;;;3.30;99.90;;;;;;5054554;28;20021;-72
2022/04/01 08:41:40;;;;;;;7.50;3.33;;;3.30;99.90;;;;;;5057579;28;20035;-70
2022/04/01 08:44:06;;;;;;;8.45;3.85;;;3.40;99.90;;;;;;5059207;28;20027;-70
2022/04/01 08:46:32;;;;;;;10.55;3.97;;;3.50;99.90;;;;;;5057387;28;20044;-68
2022/04/01 08:48:59;;;;;;;8.55;4.53;;;3.70;99.90;;;;;;5059486;28;20504;-86
2022/04/01 08:51:26;;;;;;;8.73;4.07;;;3.60;99.90;;;;;;5053424;28;20029;-69
2022/04/01 08:53:52;;;;;;;10.63;4.03;;;3.60;99.90;;;;;;5054309;28;20123;-70
2022/04/01 08:56:21;;;;;;;9.88;4.45;;;3.90;99.90;;;;;;5040164;28;20117;-70
2022/04/01 08:58:47;;;;;;;12.32;5.10;;;3.80;99.90;;;;;;5051606;28;20049;-69
2022/04/01 09:01:14;;;;;;;10.05;4.50;;;4.00;99.90;;;;;;5043464;28;20514;-69
2022/04/01 09:03:41;;;;;;;11.77;4.25;;;4.00;99.90;;;;;;5049203;28;20422;-68
2022/04/01 09:06:07;;;;;;;10.52;4.22;;;4.10;99.90;;;;;;5048023;28;20037;-69
2022/04/01 09:08:38;;;;;;;10.63;4.80;;;4.10;99.90;;;;;;5044491;28;20059;-69
2022/04/01 09:11:17;;;;;;;13.25;5.78;;;4.10;99.90;;;;;;5048524;28;20032;-68
2022/04/01 09:13:42;;;;;;;9.38;5.40;;;4.40;99.90;;;;;;5045298;28;20017;-67
2022/04/01 09:16:09;;;;;;;11.82;5.78;;;4.30;99.90;;;;;;5056830;28;20044;-69
2022/04/01 09:18:45;;;;;;;12.65;5.47;;;4.20;99.90;;;;;;5055930;28;20439;-69
2022/04/01 09:21:12;;;;;;;10.68;5.82;;;4.10;99.90;;;;;;5055919;28;20074;-67
2022/04/01 09:23:39;;;;;;;12.65;6.80;;;4.30;99.90;;;;;;5058466;28;20021;-69
2022/04/01 09:26:06;;;;;;;14.13;8.02;;;4.10;99.90;;;;;;5037021;28;20032;-69
2022/04/01 09:28:39;;;;;;;15.23;9.38;;;3.90;99.90;;;;;;5051716;28;20029;-70
2022/04/01 09:31:11;;;;;;;13.55;7.07;;;4.00;99.90;;;;;;5059322;28;20029;-69
2022/04/01 09:33:42;;;;;;;17.08;10.00;;;3.90;99.90;;;;;;5061369;28;20029;-67
2022/04/01 09:36:10;;;;;;;;;;;3.90;99.90;;;;;;5061115;28;20045;-67
2022/04/01 09:38:36;;;;;;;11.52;6.18;;;3.90;99.90;;;;;;5058903;28;19908;-67
2022/04/01 09:41:08;;;;;;;9.73;5.03;;;3.80;99.90;;;;;;5058325;28;20147;-66
2022/04/01 09:43:40;;;;;;;11.63;5.95;;;3.60;99.90;;;;;;5058060;28;20068;-69
2022/04/01 09:46:22;;;;;;;9.98;6.03;;;3.70;99.90;;;;;;5058770;28;20081;-69
2022/04/01 09:48:48;;;;;;;11.48;5.97;;;3.70;99.90;;;;;;5051324;28;20349;-69
2022/04/01 09:51:14;;;;;;;10.70;5.85;;;3.60;99.90;;;;;;5038663;28;20101;-70
2022/04/01 09:53:49;;;;;;;11.90;5.72;;;4.10;99.90;;;;;;5053592;28;20029;-69
2022/04/01 09:56:15;;;;;;;11.23;5.50;;;4.40;99.90;;;;;;5046081;28;20041;-70
2022/04/01 09:58:42;;;;;;;12.38;5.78;;;4.40;99.90;;;;;;5063174;28;20041;-70
2022/04/01 10:01:09;;;;;;;11.73;6.30;;;4.30;99.90;;;;;;5049347;28;20033;-70
2022/04/01 10:03:35;;;;;;;11.45;6.53;;;4.10;99.90;;;;;;5047239;28;20033;-69
2022/04/01 10:06:02;;;;;;;10.98;6.20;;;4.00;99.90;;;;;;5046587;28;20043;-69
2022/04/01 10:08:29;;;;;;;13.23;6.55;;;3.90;99.90;;;;;;5057289;28;20030;-67
2022/04/01 10:10:57;;;;;;;12.65;7.03;;;3.90;99.90;;;;;;5055803;28;20021;-67
2022/04/01 10:13:29;;;;;;;12.75;6.63;;;3.70;99.90;;;;;;5051688;28;20028;-67
2022/04/01 10:15:57;;;;;;;12.90;6.55;;;3.80;99.90;;;;;;5059452;28;20030;-69
2022/04/01 10:18:24;;;;;;;10.63;5.90;;;3.90;99.90;;;;;;5057474;28;20127;-70
2022/04/01 10:20:54;;;;;;;16.15;6.55;;;3.80;99.90;;;;;;5039062;28;20037;-70
2022/04/01 10:23:21;;;;;;;11.88;6.28;;;3.70;99.90;;;;;;5056197;28;20029;-70
2022/04/01 10:26:17;;;;;;;12.50;6.78;;;4.10;99.90;;;;;;5052766;28;20040;-67
2022/04/01 10:28:50;;;;;;;12.68;6.65;;;4.30;99.90;;;;;;5051605;28;20527;-69
2022/04/01 10:31:16;;;;;;;12.75;6.60;;;4.60;99.90;;;;;;5054075;28;20108;-67
2022/04/01 10:33:41;;;;;;;11.57;6.47;;;4.90;99.90;;;;;;5054261;28;20037;-68
2022/04/01 10:36:31;;;;;;;11.85;6.72;;;4.60;99.90;;;;;;5052746;28;20155;-67
2022/04/01 10:39:06;;;;;;;11.95;5.93;;;4.40;99.90;;;;;;5057411;28;20035;-67
2022/04/01 10:41:33;;;;;;;12.10;6.60;;;4.20;99.90;;;;;;5062718;28;20020;-67
2022/04/01 10:44:00;;;;;;;11.95;5.80;;;4.50;99.90;;;;;;5045217;28;20033;-66
2022/04/01 10:46:27;;;;;;;11.57;5.47;;;4.90;99.90;;;;;;5053232;28;20120;-67
2022/04/01 10:52:23;;;;;;;9.10;4.95;;;4.70;99.90;;;;;;5054805;28;20091;-66
2022/04/01 10:55:10;;;;;;;11.23;3.90;;;5.50;99.90;;;;;;5048239;28;20087;-67
2022/04/01 10:57:47;;;;;;;7.25;3.50;;;5.80;99.90;;;;;;5054697;28;20048;-67
2022/04/01 11:00:18;;;;;;;7.25;3.63;;;6.00;99.90;;;;;;5054667;28;20035;-67
2022/04/01 11:02:46;;;;;;;9.45;3.38;;;6.20;99.90;;;;;;5053987;28;20073;-67
2022/04/01 11:05:29;;;;;;;7.38;3.40;;;6.30;99.90;;;;;;5052416;28;20071;-66
2022/04/01 11:08:20;;;;;;;7.00;3.13;;;6.20;99.90;;;;;;5061854;28;20025;-67
2022/04/01 11:11:07;;;;;;;9.18;3.17;;;6.00;99.90;;;;;;5053471;28;20040;-67
2022/04/01 11:13:34;;;;;;;6.88;2.83;;;6.30;99.90;;;;;;5081820;28;20569;-67
2022/04/01 11:16:20;;;;;;;7.20;2.72;;;6.40;99.90;;;;;;5049964;28;20027;-67
2022/04/01 11:19:15;;;;;;;6.35;3.13;;;5.70;99.90;;;;;;5056386;28;20037;-69
2022/04/01 11:21:42;;;;;;;6.55;2.92;;;5.90;99.90;;;;;;5055735;28;20090;-67
2022/04/01 11:24:37;;;;;;;7.13;2.80;;;5.90;99.90;;;;;;5054489;28;20581;-67
2022/04/01 11:27:20;;;;;;;6.68;2.70;;;5.70;99.90;;;;;;5080190;28;20501;-67
2022/04/01 11:30:13;;;;;;;6.30;2.80;;;5.70;99.90;;;;;;5049220;28;20037;-68
2022/04/01 11:32:41;;;;;;;8.32;3.13;;;5.90;99.90;;;;;;5044870;28;20021;-67
2022/04/01 11:35:09;;;;;;;6.43;2.75;;;6.10;99.90;;;;;;5049326;28;20017;-67
2022/04/01 11:37:40;;;;;;;6.57;2.42;;;5.90;99.90;;;;;;5056140;28;20128;-67
2022/04/01 11:40:12;;;;;;;7.50;2.65;;;6.20;99.90;;;;;;5052768;28;20084;-68
2022/04/01 11:42:53;;;;;;;8.75;2.90;;;6.20;99.90;;;;;;5052213;28;20024;-68
2022/04/01 11:45:20;;;;;;;7.80;3.03;;;6.00;99.90;;;;;;5047673;28;20052;-68
2022/04/01 11:47:46;;;;;;;8.15;2.97;;;6.10;99.90;;;;;;5040502;28;20029;-67
2022/04/01 11:50:15;;;;;;;9.18;2.80;;;5.70;99.90;;;;;;5051637;28;20087;-67
2022/04/01 11:52:43;;;;;;;6.60;2.60;;;5.60;99.90;;;;;;5057447;28;20025;-67
2022/04/01 11:55:28;;;;;;;6.05;2.13;;;5.60;99.90;;;;;;5057745;28;20048;-67
2022/04/01 11:57:57;;;;;;;7.32;2.20;;;5.60;99.90;;;;;;5079085;28;20068;-69
2022/04/01 12:00:27;;;;;;;8.85;2.80;;;5.50;99.90;;;;;;5057993;28;21373;-67
2022/04/01 12:02:54;;;;;;;7.22;2.53;;;5.70;99.90;;;;;;5059987;28;20044;-67
2022/04/01 12:05:21;;;;;;;7.10;2.22;;;5.70;99.90;;;;;;5060839;28;20510;-68
2022/04/01 12:10:39;;;;;;;6.32;2.70;;;5.70;99.90;;;;;;5062309;28;20051;-68
2022/04/01 12:13:09;;;;;;;6.55;2.17;;;5.80;99.90;;;;;;5044895;28;20116;-67
2022/04/01 12:15:42;;;;;;;7.93;2.35;;;5.50;99.90;;;;;;5062421;28;20453;-67
2022/04/01 12:18:10;;;;;;;6.63;2.33;;;5.80;99.90;;;;;;5061437;28;20093;-67
2022/04/01 12:20:43;;;;;;;7.53;2.47;;;5.60;99.90;;;;;;5061003;28;20021;-67
2022/04/01 12:23:09;;;;;;;6.20;1.90;;;5.70;99.90;;;;;;5061299;28;20045;-67
2022/04/01 12:25:37;;;;;;;7.22;2.30;;;5.40;99.90;;;;;;5062099;28;20092;-67
2022/04/01 12:28:04;;;;;;;7.20;2.58;;;5.80;99.90;;;;;;5062010;28;20429;-67
2022/04/01 12:30:44;;;;;;;5.00;1.92;;;5.90;99.90;;;;;;5061858;28;20155;-67
2022/04/01 12:33:31;;;;;;;8.00;2.47;;;5.80;99.90;;;;;;5062531;28;20051;-67
2022/04/01 12:36:03;;;;;;;6.97;2.10;;;5.80;99.90;;;;;;5060752;28;20052;-67
2022/04/01 12:38:34;;;;;;;8.45;2.40;;;6.00;99.90;;;;;;5061993;28;20037;-67
2022/04/01 12:41:05;;;;;;;5.18;2.45;;;6.00;99.90;;;;;;5059506;28;20025;-68
2022/04/01 12:43:40;;;;;;;7.93;2.13;;;6.20;99.90;;;;;;5061315;28;20025;-67
2022/04/01 12:46:11;;;;;;;5.88;2.22;;;6.00;99.90;;;;;;5062225;28;20112;-67
2022/04/01 12:48:52;;;;;;;7.07;2.40;;;6.00;99.90;;;;;;5060821;28;20059;-67
2022/04/01 12:51:22;;;;;;;7.75;2.70;;;6.50;99.90;;;;;;5062101;28;20040;-67
2022/04/01 12:54:00;;;;;;;7.82;2.50;;;6.40;99.90;;;;;;5060855;28;20059;-67
2022/04/01 12:56:40;;;;;;;6.32;2.50;;;6.70;99.90;;;;;;5061302;28;20052;-68
2022/04/01 12:59:14;;;;;;;6.38;2.40;;;6.40;99.90;;;;;;5061034;28;20118;-67
2022/04/01 13:01:43;;;;;;;7.38;2.40;;;6.60;99.90;;;;;;5058795;28;20025;-67
2022/04/01 13:04:21;;;;;;;8.07;2.42;;;6.70;99.90;;;;;;5058795;28;20093;-68
2022/04/01 13:07:05;;;;;;;6.47;2.20;;;7.00;99.90;;;;;;5059532;28;20039;-68
2022/04/01 13:09:31;;;;;;;7.13;2.25;;;6.50;99.90;;;;;;5058417;28;20471;-67
2022/04/01 13:11:58;;;;;;;6.50;2.60;;;6.50;99.90;;;;;;5059657;28;20018;-67
2022/04/01 13:14:28;;;;;;;8.85;2.75;;;6.60;99.90;;;;;;5058844;28;20532;-67
2022/04/01 13:16:56;;;;;;;7.07;2.47;;;6.70;99.90;;;;;;5059347;28;20357;-67
2022/04/01 13:19:29;;;;;;;7.28;2.65;;;6.70;99.90;;;;;;5060144;28;20095;-68
2022/04/01 13:22:00;;;;;;;6.38;2.38;;;6.60;99.90;;;;;;5059656;28;20050;-67